createdAt,value
2023-01-25T00:00:19.786Z,99667.91
2023-01-25T00:02:45.999Z,99667.16
2023-01-25T00:05:12.940Z,99668.03
2023-01-25T00:07:39.124Z,99665.47
2023-01-25T00:10:05.330Z,99677.81
2023-01-25T00:12:31.931Z,99667.91
2023-01-25T00:14:58.188Z,99669.44
2023-01-25T00:17:24.428Z,99671.00
2023-01-25T00:19:51.058Z,99670.88
2023-01-25T00:22:17.301Z,99671.59
2023-01-25T00:24:43.553Z,99674.16
2023-01-25T00:27:09.740Z,99675.03
2023-01-25T00:29:36.655Z,99668.78
2023-01-25T00:32:02.976Z,99667.81
2023-01-25T00:34:29.225Z,99656.91
2023-01-25T00:36:56.662Z,99673.34
2023-01-25T00:39:22.920Z,99662.63
2023-01-25T00:41:49.153Z,99659.66
2023-01-25T00:44:15.799Z,99650.59
2023-01-25T00:46:42.555Z,99653.09
2023-01-25T00:49:09.166Z,99641.16
2023-01-25T00:51:35.661Z,99650.63
2023-01-25T00:54:01.895Z,99647.69
2023-01-25T00:56:28.084Z,99640.25
2023-01-25T00:58:54.424Z,99634.66
2023-01-25T01:01:20.718Z,99639.66
2023-01-25T01:03:47.125Z,99634.06
2023-01-25T01:06:13.331Z,99648.63
2023-01-25T01:08:39.519Z,99643.03
2023-01-25T01:11:06.236Z,99641.88
2023-01-25T01:13:33.270Z,99636.09
2023-01-25T01:15:59.481Z,99630.50
2023-01-25T01:18:25.679Z,99634.47
2023-01-25T01:20:51.961Z,99638.44
2023-01-25T01:23:18.446Z,99647.75
2023-01-25T01:25:44.753Z,99639.50
2023-01-25T01:28:11.751Z,99639.81
2023-01-25T01:30:37.968Z,99642.16
2023-01-25T01:33:04.245Z,99640.81
2023-01-25T01:35:31.014Z,99636.22
2023-01-25T01:37:58.141Z,99634.91
2023-01-25T01:40:25.227Z,99638.91
2023-01-25T01:42:51.466Z,99635.91
2023-01-25T01:45:17.952Z,99633.78
2023-01-25T01:47:44.833Z,99633.28
2023-01-25T01:50:11.251Z,99622.38
2023-01-25T01:52:37.536Z,99633.28
2023-01-25T01:55:04.230Z,99623.16
2023-01-25T01:57:30.511Z,99633.25
2023-01-25T01:59:56.983Z,99630.13
2023-01-25T02:02:23.223Z,99632.28
2023-01-25T02:04:50.464Z,99630.97
2023-01-25T02:07:16.828Z,99630.31
2023-01-25T02:09:46.551Z,99630.63
2023-01-25T02:12:13.272Z,99626.66
2023-01-25T02:14:39.506Z,99626.34
2023-01-25T02:17:06.128Z,99622.19
2023-01-25T02:19:32.666Z,99624.34
2023-01-25T02:21:58.872Z,99624.69
2023-01-25T02:24:25.210Z,99622.38
2023-01-25T02:26:51.411Z,99621.03
2023-01-25T02:29:17.882Z,99622.34
2023-01-25T02:31:44.460Z,99615.72
2023-01-25T02:34:11.534Z,99623.81
2023-01-25T02:36:37.734Z,99614.59
2023-01-25T02:39:04.389Z,99613.09
2023-01-25T02:41:30.630Z,99605.50
2023-01-25T02:43:56.850Z,99604.00
2023-01-25T02:46:23.959Z,99591.09
2023-01-25T02:48:50.145Z,99585.31
2023-01-25T02:51:16.597Z,99589.94
2023-01-25T02:53:43.143Z,99582.16
2023-01-25T02:56:09.316Z,99576.38
2023-01-25T02:58:36.879Z,99581.00
2023-01-25T03:01:03.300Z,99566.47
2023-01-25T03:03:29.916Z,99576.38
2023-01-25T03:05:56.321Z,99572.25
2023-01-25T03:08:23.057Z,99570.75
2023-01-25T03:10:49.266Z,99565.78
2023-01-25T03:13:15.744Z,99566.13
2023-01-25T03:15:44.952Z,99573.38
2023-01-25T03:18:11.150Z,99556.84
2023-01-25T03:20:37.342Z,99555.38
2023-01-25T03:25:47.431Z,99546.28
2023-01-25T03:28:13.957Z,99547.41
2023-01-25T03:30:40.585Z,99552.19
2023-01-25T03:33:06.877Z,99546.28
2023-01-25T03:35:33.319Z,99543.13
2023-01-25T03:37:59.703Z,99539.16
2023-01-25T03:40:26.708Z,99532.34
2023-01-25T03:42:53.275Z,99542.25
2023-01-25T03:45:19.625Z,99546.03
2023-01-25T03:47:45.806Z,99534.63
2023-01-25T03:50:12.102Z,99534.97
2023-01-25T03:52:38.288Z,99541.22
2023-01-25T03:55:04.518Z,99535.28
2023-01-25T03:57:30.715Z,99544.50
2023-01-25T03:59:56.973Z,99542.84
2023-01-25T04:02:23.220Z,99542.34
2023-01-25T04:04:49.481Z,99538.22
2023-01-25T04:07:16.601Z,99535.72
2023-01-25T04:09:42.770Z,99539.34
2023-01-25T04:12:08.923Z,99536.88
2023-01-25T04:14:44.062Z,99532.75
2023-01-25T04:17:10.698Z,99533.72
2023-01-25T04:19:36.993Z,99533.88
2023-01-25T04:22:03.203Z,99540.16
2023-01-25T04:24:29.406Z,99530.72
2023-01-25T04:26:55.618Z,99528.25
2023-01-25T04:29:31.641Z,99525.78
2023-01-25T04:32:05.558Z,99514.72
2023-01-25T04:34:31.835Z,99514.19
2023-01-25T04:36:58.159Z,99511.06
2023-01-25T04:39:24.616Z,99513.84
2023-01-25T04:41:51.413Z,99511.53
2023-01-25T04:44:17.735Z,99508.06
2023-01-25T04:46:44.078Z,99509.19
2023-01-25T04:49:10.392Z,99506.88
2023-01-25T04:51:36.725Z,99511.31
2023-01-25T04:54:02.998Z,99509.84
2023-01-25T04:56:29.994Z,99507.38
2023-01-25T04:58:56.205Z,99506.84
2023-01-25T05:01:22.454Z,99507.97
2023-01-25T05:03:48.844Z,99504.66
2023-01-25T05:06:15.306Z,99505.00
2023-01-25T05:08:41.504Z,99501.69
2023-01-25T05:11:07.720Z,99495.72
2023-01-25T05:13:34.433Z,99497.56
2023-01-25T05:16:00.819Z,99498.38
2023-01-25T05:18:33.164Z,99497.56
2023-01-25T05:21:06.147Z,99497.69
2023-01-25T05:23:32.364Z,99496.72
2023-01-25T05:25:58.688Z,99492.59
2023-01-25T05:28:25.321Z,99492.59
2023-01-25T05:30:51.627Z,99487.47
2023-01-25T05:33:18.348Z,99486.78
2023-01-25T05:35:45.171Z,99495.69
2023-01-25T05:38:12.378Z,99490.59
2023-01-25T05:40:38.946Z,99486.44
2023-01-25T05:43:05.671Z,99492.72
2023-01-25T05:45:32.080Z,99491.03
2023-01-25T05:47:58.420Z,99493.00
2023-01-25T05:50:25.204Z,99495.00
2023-01-25T05:52:51.395Z,99487.38
2023-01-25T05:55:17.578Z,99491.97
2023-01-25T05:57:43.758Z,99479.94
2023-01-25T06:00:10.548Z,99478.28
2023-01-25T06:02:37.159Z,99480.25
2023-01-25T06:05:03.452Z,99483.06
2023-01-25T06:07:30.343Z,99478.91
2023-01-25T06:09:56.862Z,99467.53
2023-01-25T06:12:23.046Z,99469.50
2023-01-25T06:14:49.243Z,99474.13
2023-01-25T06:17:15.459Z,99468.00
2023-01-25T06:19:41.943Z,99467.50
2023-01-25T06:22:08.146Z,99469.44
2023-01-25T06:24:34.413Z,99472.25
2023-01-25T06:27:00.645Z,99465.47
2023-01-25T06:29:27.749Z,99464.78
2023-01-25T06:31:55.203Z,99469.41
2023-01-25T06:34:21.589Z,99474.00
2023-01-25T06:36:47.783Z,99471.38
2023-01-25T06:39:14.525Z,99473.16
2023-01-25T06:41:40.708Z,99474.97
2023-01-25T06:44:06.894Z,99464.59
2023-01-25T06:46:33.118Z,99472.66
2023-01-25T06:48:59.370Z,99467.69
2023-01-25T06:51:25.572Z,99462.41
2023-01-25T06:53:51.963Z,99459.94
2023-01-25T06:56:18.174Z,99451.38
2023-01-25T06:58:44.460Z,99455.78
2023-01-25T07:01:10.719Z,99445.41
2023-01-25T07:03:36.937Z,99449.16
2023-01-25T07:06:03.210Z,99444.91
2023-01-25T07:08:29.416Z,99441.44
2023-01-25T07:10:56.722Z,99459.00
2023-01-25T07:13:23.463Z,99456.16
2023-01-25T07:15:49.718Z,99444.97
2023-01-25T07:18:16.830Z,99442.44
2023-01-25T07:20:43.085Z,99446.72
2023-01-25T07:23:09.280Z,99438.72
2023-01-25T07:25:35.692Z,99432.16
2023-01-25T07:28:02.687Z,99435.91
2023-01-25T07:30:28.873Z,99433.66
2023-01-25T07:32:57.189Z,99443.16
2023-01-25T07:35:26.379Z,99441.38
2023-01-25T07:37:53.288Z,99442.91
2023-01-25T07:40:20.327Z,99433.41
2023-01-25T07:42:47.303Z,99430.44
2023-01-25T07:45:13.587Z,99430.94
2023-01-25T07:47:39.835Z,99429.44
2023-01-25T07:50:06.804Z,99427.03
2023-01-25T07:52:33.787Z,99429.13
2023-01-25T07:55:00.083Z,99431.78
2023-01-25T07:57:26.908Z,99433.59
2023-01-25T07:59:53.333Z,99436.88
2023-01-25T08:02:19.595Z,99440.97
2023-01-25T08:04:45.826Z,99439.25
2023-01-25T08:07:12.030Z,99434.06
2023-01-25T08:09:41.945Z,99433.56
2023-01-25T08:12:08.785Z,99441.69
2023-01-25T08:14:35.101Z,99439.94
2023-01-25T08:17:01.690Z,99436.94
2023-01-25T08:19:28.290Z,99440.91
2023-01-25T08:21:54.771Z,99431.59
2023-01-25T08:24:21.285Z,99440.25
2023-01-25T08:26:47.994Z,99439.28
2023-01-25T08:29:14.206Z,99435.25
2023-01-25T08:31:40.485Z,99434.72
2023-01-25T08:34:06.669Z,99440.50
2023-01-25T08:36:33.260Z,99440.75
2023-01-25T08:38:59.569Z,99431.59
2023-01-25T08:41:25.988Z,99432.03
2023-01-25T08:43:52.207Z,99426.91
2023-01-25T08:46:18.437Z,99423.88
2023-01-25T08:48:44.628Z,99423.88
2023-01-25T08:51:10.823Z,99423.88
2023-01-25T08:53:37.180Z,99419.75
2023-01-25T08:56:03.543Z,99415.84
2023-01-25T08:58:29.773Z,99409.06
2023-01-25T09:00:56.029Z,99408.25
2023-01-25T09:03:22.255Z,99402.91
2023-01-25T09:05:48.477Z,99398.84
2023-01-25T09:08:15.296Z,99395.53
2023-01-25T09:10:42.303Z,99392.44
2023-01-25T09:13:09.045Z,99397.97
2023-01-25T09:15:35.483Z,99399.19
2023-01-25T09:18:02.428Z,99399.59
2023-01-25T09:20:31.710Z,99387.69
2023-01-25T09:23:00.608Z,99390.56
2023-01-25T09:25:27.209Z,99381.94
2023-01-25T09:27:53.625Z,99380.31
2023-01-25T09:30:20.111Z,99385.84
2023-01-25T09:32:54.115Z,99379.06
2023-01-25T09:35:20.399Z,99375.75
2023-01-25T09:37:46.586Z,99368.81
2023-01-25T09:40:12.793Z,99378.63
2023-01-25T09:42:45.036Z,99368.19
2023-01-25T09:45:11.967Z,99370.00
2023-01-25T09:47:39.164Z,99368.38
2023-01-25T09:50:05.428Z,99358.72
2023-01-25T09:52:32.379Z,99355.91
2023-01-25T09:54:58.570Z,99358.94
2023-01-25T09:57:24.863Z,99353.22
2023-01-25T09:59:51.218Z,99353.63
2023-01-25T10:02:17.522Z,99352.63
2023-01-25T10:04:43.792Z,99354.09
2023-01-25T10:07:10.031Z,99357.84
2023-01-25T10:09:36.586Z,99361.34
2023-01-25T10:12:03.054Z,99366.75
2023-01-25T10:14:29.269Z,99358.75
2023-01-25T10:16:55.584Z,99352.63
2023-01-25T10:19:21.904Z,99350.56
2023-01-25T10:21:48.099Z,99344.84
2023-01-25T10:24:14.361Z,99345.03
2023-01-25T10:26:40.559Z,99326.78
2023-01-25T10:29:06.781Z,99331.69
2023-01-25T10:31:33.068Z,99314.84
2023-01-25T10:33:59.317Z,99315.06
2023-01-25T10:36:26.596Z,99314.44
2023-01-25T10:38:52.811Z,99310.97
2023-01-25T10:41:19.244Z,99308.09
2023-01-25T10:43:45.461Z,99293.09
2023-01-25T10:46:11.740Z,99291.06
2023-01-25T10:48:38.164Z,99281.22
2023-01-25T10:51:04.340Z,99286.13
2023-01-25T10:53:31.442Z,99278.56
2023-01-25T10:55:58.374Z,99275.09
2023-01-25T10:58:25.377Z,99274.69
2023-01-25T11:00:51.557Z,99259.28
2023-01-25T11:03:17.742Z,99262.16
2023-01-25T11:05:43.944Z,99251.94
2023-01-25T11:08:11.139Z,99245.16
2023-01-25T11:10:38.518Z,99241.84
2023-01-25T11:13:05.762Z,99235.13
2023-01-25T11:15:32.027Z,99238.16
2023-01-25T11:17:59.148Z,99225.25
2023-01-25T11:20:25.345Z,99219.31
2023-01-25T11:22:51.581Z,99212.34
2023-01-25T11:25:18.212Z,99203.75
2023-01-25T11:27:44.427Z,99194.13
2023-01-25T11:30:11.236Z,99195.94
2023-01-25T11:32:37.624Z,99189.00
2023-01-25T11:35:03.791Z,99190.00
2023-01-25T11:37:30.109Z,99180.38
2023-01-25T11:39:56.298Z,99186.72
2023-01-25T11:42:24.579Z,99178.72
2023-01-25T11:44:51.004Z,99180.75
2023-01-25T11:47:17.187Z,99171.13
2023-01-25T11:49:43.680Z,99173.78
2023-01-25T11:52:09.875Z,99174.00
2023-01-25T11:54:36.097Z,99165.56
2023-01-25T11:57:03.070Z,99160.06
2023-01-25T11:59:29.244Z,99160.09
2023-01-25T12:01:56.022Z,99158.41
2023-01-25T12:04:22.903Z,99153.28
2023-01-25T12:06:49.107Z,99158.75
2023-01-25T12:09:16.519Z,99163.22
2023-01-25T12:11:42.916Z,99155.75
2023-01-25T12:14:09.145Z,99152.22
2023-01-25T12:16:35.652Z,99148.91
2023-01-25T12:19:01.843Z,99139.41
2023-01-25T12:21:31.784Z,99137.53
2023-01-25T12:23:58.140Z,99137.69
2023-01-25T12:26:24.372Z,99129.47
2023-01-25T12:28:50.572Z,99119.63
2023-01-25T12:31:17.185Z,99111.16
2023-01-25T12:33:44.064Z,99101.91
2023-01-25T12:36:10.317Z,99104.81
2023-01-25T12:38:36.520Z,99096.59
2023-01-25T12:41:04.828Z,99097.88
2023-01-25T12:43:31.022Z,99091.47
2023-01-25T12:45:58.099Z,99085.91
2023-01-25T12:48:24.307Z,99073.63
2023-01-25T12:50:51.331Z,99075.06
2023-01-25T12:53:17.567Z,99066.47
2023-01-25T12:55:44.076Z,99047.59
2023-01-25T12:58:10.863Z,99043.31
2023-01-25T13:00:37.176Z,99037.38
2023-01-25T13:03:03.387Z,99030.41
2023-01-25T13:05:30.517Z,99035.16
2023-01-25T13:07:56.725Z,99027.34
2023-01-25T13:10:23.078Z,99030.25
2023-01-25T13:12:49.491Z,99025.94
2023-01-25T13:15:15.777Z,99023.66
2023-01-25T13:17:42.068Z,99007.03
2023-01-25T13:20:08.833Z,99001.94
2023-01-25T13:22:35.156Z,99005.84
2023-01-25T13:25:01.430Z,99001.75
2023-01-25T13:27:28.420Z,98997.66
2023-01-25T13:29:56.254Z,98986.38
2023-01-25T13:35:16.561Z,98975.75
2023-01-25T13:37:43.408Z,98966.34
2023-01-25T13:40:10.313Z,98975.38
2023-01-25T13:42:37.742Z,98974.56
2023-01-25T13:45:04.824Z,98967.59
2023-01-25T13:47:31.050Z,98960.63
2023-01-25T13:49:58.710Z,98959.81
2023-01-25T13:52:27.732Z,98961.66
2023-01-25T13:54:54.110Z,98952.03
2023-01-25T13:57:20.308Z,98948.53
2023-01-25T13:59:49.548Z,98945.88
2023-01-25T14:02:17.116Z,98941.59
2023-01-25T14:04:43.318Z,98946.91
2023-01-25T14:07:09.594Z,98948.75
2023-01-25T14:09:36.121Z,98947.09
2023-01-25T14:12:03.042Z,98950.81
2023-01-25T14:14:29.244Z,98948.38
2023-01-25T14:16:55.557Z,98940.59
2023-01-25T14:19:22.337Z,98938.16
2023-01-25T14:21:49.620Z,98931.38
2023-01-25T14:24:16.700Z,98927.09
2023-01-25T14:26:42.885Z,98926.69
2023-01-25T14:29:14.196Z,98927.94
2023-01-25T14:31:41.346Z,98916.66
2023-01-25T14:34:07.576Z,98909.94
2023-01-25T14:36:34.833Z,98905.84
2023-01-25T14:39:03.204Z,98901.75
2023-01-25T14:41:30.849Z,98901.16
2023-01-25T14:43:57.971Z,98899.72
2023-01-25T14:46:24.304Z,98895.66
2023-01-25T14:48:50.583Z,98899.56
2023-01-25T14:51:17.059Z,98900.59
2023-01-25T14:53:43.885Z,98896.50
2023-01-25T14:56:10.081Z,98898.34
2023-01-25T14:58:36.439Z,98898.56
2023-01-25T15:01:02.638Z,98896.94
2023-01-25T15:03:29.451Z,98893.84
2023-01-25T15:05:55.776Z,98886.88
2023-01-25T15:08:22.059Z,98887.28
2023-01-25T15:10:48.274Z,98879.00
2023-01-25T15:13:15.700Z,98882.00
2023-01-25T15:15:42.101Z,98876.56
2023-01-25T15:18:08.314Z,98878.28
2023-01-25T15:20:34.502Z,98873.31
2023-01-25T15:23:00.889Z,98879.16
2023-01-25T15:25:27.075Z,98879.13
2023-01-25T15:27:54.056Z,98876.59
2023-01-25T15:30:22.003Z,98869.19
2023-01-25T15:35:33.099Z,98868.75
2023-01-25T15:37:59.365Z,98859.72
2023-01-25T15:40:25.611Z,98861.81
2023-01-25T15:42:51.804Z,98853.88
2023-01-25T15:45:18.485Z,98854.47
2023-01-25T15:47:44.717Z,98849.59
2023-01-25T15:50:11.200Z,98846.31
2023-01-25T15:52:38.169Z,98844.69
2023-01-25T15:55:04.373Z,98842.44
2023-01-25T15:57:33.672Z,98836.97
2023-01-25T16:00:02.073Z,98838.66
2023-01-25T16:02:28.628Z,98842.00
2023-01-25T16:04:55.662Z,98833.00
2023-01-25T16:07:21.981Z,98828.34
2023-01-25T16:09:48.225Z,98829.81
2023-01-25T16:12:15.957Z,98825.94
2023-01-25T16:14:42.198Z,98821.03
2023-01-25T16:17:08.409Z,98807.34
2023-01-25T16:19:34.659Z,98822.94
2023-01-25T16:22:01.926Z,98830.34
2023-01-25T16:24:28.218Z,98825.47
2023-01-25T16:26:54.661Z,98821.16
2023-01-25T16:29:20.863Z,98821.16
2023-01-25T16:31:47.309Z,98830.78
2023-01-25T16:34:14.062Z,98825.47
2023-01-25T16:36:40.264Z,98827.09
2023-01-25T16:39:06.496Z,98830.34
2023-01-25T16:41:33.466Z,98824.00
2023-01-25T16:43:59.749Z,98821.94
2023-01-25T16:46:26.093Z,98810.44
2023-01-25T16:48:53.487Z,98811.25
2023-01-25T16:51:19.693Z,98805.94
2023-01-25T16:53:45.888Z,98804.06
2023-01-25T16:56:12.104Z,98804.88
2023-01-25T16:58:38.356Z,98809.63
2023-01-25T17:01:04.719Z,98802.66
2023-01-25T17:03:30.924Z,98801.00
2023-01-25T17:05:58.016Z,98801.22
2023-01-25T17:08:24.773Z,98787.31
2023-01-25T17:10:52.058Z,98795.53
2023-01-25T17:13:18.348Z,98791.47
2023-01-25T17:15:44.632Z,98787.38
2023-01-25T17:18:11.053Z,98783.31
2023-01-25T17:20:38.041Z,98784.53
2023-01-25T17:23:04.238Z,98784.97
2023-01-25T17:25:30.506Z,98782.53
2023-01-25T17:27:56.708Z,98777.41
2023-01-25T17:30:23.520Z,98785.84
2023-01-25T17:32:50.444Z,98781.78
2023-01-25T17:35:16.936Z,98781.78
2023-01-25T17:37:43.678Z,98778.06
2023-01-25T17:40:10.233Z,98769.03
2023-01-25T17:42:36.567Z,98766.16
2023-01-25T17:45:02.973Z,98773.13
2023-01-25T17:47:29.241Z,98769.41
2023-01-25T17:49:55.408Z,98771.06
2023-01-25T17:52:21.608Z,98754.00
2023-01-25T17:54:47.823Z,98763.66
2023-01-25T17:57:14.031Z,98763.88
2023-01-25T17:59:40.406Z,98759.34
2023-01-25T18:02:06.726Z,98757.72
2023-01-25T18:04:33.141Z,98750.75
2023-01-25T18:06:59.458Z,98750.56
2023-01-25T18:09:26.315Z,98738.25
2023-01-25T18:11:52.733Z,98735.72
2023-01-25T18:14:19.025Z,98743.25
2023-01-25T18:16:45.270Z,98732.44
2023-01-25T18:19:14.532Z,98731.28
2023-01-25T18:21:41.267Z,98723.13
2023-01-25T18:24:08.047Z,98715.41
2023-01-25T18:26:34.327Z,98712.03
2023-01-25T18:29:01.429Z,98713.16
2023-01-25T18:31:28.026Z,98714.00
2023-01-25T18:33:54.399Z,98716.13
2023-01-25T18:36:20.681Z,98718.03
2023-01-25T18:38:48.790Z,98711.94
2023-01-25T18:41:15.038Z,98715.88
2023-01-25T18:43:41.221Z,98718.00
2023-01-25T18:46:08.167Z,98712.91
2023-01-25T18:48:34.419Z,98706.22
2023-01-25T18:51:00.667Z,98700.78
2023-01-25T18:53:26.895Z,98702.31
2023-01-25T18:55:54.049Z,98694.97
2023-01-25T18:58:21.121Z,98694.88
2023-01-25T19:00:49.898Z,98683.69
2023-01-25T19:03:16.135Z,98680.00
2023-01-25T19:05:42.336Z,98667.09
2023-01-25T19:08:08.545Z,98672.88
2023-01-25T19:10:35.038Z,98670.94
2023-01-25T19:13:04.123Z,98663.03
2023-01-25T19:15:30.332Z,98664.19
2023-01-25T19:17:58.531Z,98656.88
2023-01-25T19:20:24.714Z,98660.66
2023-01-25T19:22:50.935Z,98665.06
2023-01-25T19:25:17.263Z,98657.38
2023-01-25T19:27:43.474Z,98659.13
2023-01-25T19:30:09.679Z,98662.44
2023-01-25T19:32:35.981Z,98665.59
2023-01-25T19:35:02.159Z,98667.69
2023-01-25T19:37:28.335Z,98663.38
2023-01-25T19:39:54.525Z,98656.88
2023-01-25T19:42:26.146Z,98661.63
2023-01-25T19:44:52.382Z,98643.63
2023-01-25T19:47:18.869Z,98645.69
2023-01-25T19:49:45.083Z,98641.06
2023-01-25T19:52:11.572Z,98649.50
2023-01-25T19:54:38.129Z,98639.28
2023-01-25T19:57:04.428Z,98632.75
2023-01-25T19:59:31.280Z,98626.28
2023-01-25T20:01:57.537Z,98626.69
2023-01-25T20:04:23.971Z,98622.66
2023-01-25T20:06:50.206Z,98620.22
2023-01-25T20:09:17.373Z,98615.53
2023-01-25T20:11:43.724Z,98613.34
2023-01-25T20:14:10.671Z,98609.41
2023-01-25T20:16:37.375Z,98614.41
2023-01-25T20:19:03.752Z,98608.31
2023-01-25T20:21:30.075Z,98607.84
2023-01-25T20:23:56.579Z,98606.25
2023-01-25T20:26:23.049Z,98608.81
2023-01-25T20:28:49.242Z,98610.56
2023-01-25T20:31:15.970Z,98608.22
2023-01-25T20:33:42.295Z,98608.22
2023-01-25T20:36:09.260Z,98603.00
2023-01-25T20:38:36.011Z,98603.13
2023-01-25T20:41:02.973Z,98600.75
2023-01-25T20:43:29.220Z,98597.94
2023-01-25T20:45:55.534Z,98592.13
2023-01-25T20:48:21.904Z,98592.69
2023-01-25T20:50:48.649Z,98590.25
2023-01-25T20:53:14.866Z,98580.59
2023-01-25T20:55:41.129Z,98580.50
2023-01-25T20:58:07.388Z,98573.19
2023-01-25T21:00:33.647Z,98573.03
2023-01-25T21:02:59.848Z,98568.63
2023-01-25T21:05:26.032Z,98562.34
2023-01-25T21:07:52.223Z,98568.41
2023-01-25T21:10:18.484Z,98566.41
2023-01-25T21:12:45.524Z,98560.50
2023-01-25T21:15:12.062Z,98561.53
2023-01-25T21:17:38.455Z,98563.63
2023-01-25T21:20:04.649Z,98553.41
2023-01-25T21:22:31.126Z,98558.38
2023-01-25T21:24:57.477Z,98558.03
2023-01-25T21:27:24.353Z,98559.53
2023-01-25T21:29:50.655Z,98551.41
2023-01-25T21:32:17.034Z,98550.03
2023-01-25T21:34:43.986Z,98541.66
2023-01-25T21:37:10.695Z,98537.22
2023-01-25T21:39:36.923Z,98537.13
2023-01-25T21:42:03.124Z,98535.94
2023-01-25T21:44:29.490Z,98542.81
2023-01-25T21:47:23.548Z,98543.25
2023-01-25T21:49:41.974Z,98545.19
2023-01-25T21:52:08.259Z,98544.03
2023-01-25T21:54:34.459Z,98535.69
2023-01-25T21:57:00.846Z,98528.91
2023-01-25T21:59:27.064Z,98530.63
2023-01-25T22:01:53.609Z,98526.81
2023-01-25T22:04:19.833Z,98523.78
2023-01-25T22:06:46.716Z,98514.59
2023-01-25T22:09:13.579Z,98508.91
2023-01-25T22:11:40.844Z,98507.72
2023-01-25T22:14:07.068Z,98521.50
2023-01-25T22:16:33.258Z,98517.66
2023-01-25T22:19:00.237Z,98519.97
2023-01-25T22:21:26.442Z,98515.09
2023-01-25T22:23:52.814Z,98518.22
2023-01-25T22:26:19.114Z,98516.81
2023-01-25T22:28:46.007Z,98502.09
2023-01-25T22:31:18.791Z,98506.84
2023-01-25T22:33:48.047Z,98502.75
2023-01-25T22:36:14.616Z,98507.50
2023-01-25T22:38:41.777Z,98504.25
2023-01-25T22:41:08.963Z,98505.06
2023-01-25T22:43:35.135Z,98508.78
2023-01-25T22:46:01.825Z,98512.50
2023-01-25T22:48:30.333Z,98512.50
2023-01-25T22:50:56.969Z,98508.19
2023-01-25T22:53:27.049Z,98502.84
2023-01-25T22:55:54.604Z,98501.22
2023-01-25T22:58:20.859Z,98496.91
2023-01-25T23:00:47.313Z,98499.00
2023-01-25T23:03:14.367Z,98507.22
2023-01-25T23:05:40.683Z,98497.59
2023-01-25T23:08:06.924Z,98491.44
2023-01-25T23:10:33.442Z,98492.50
2023-01-25T23:13:00.404Z,98490.28
2023-01-25T23:15:26.726Z,98477.16
2023-01-25T23:17:52.938Z,98481.13
2023-01-25T23:20:19.132Z,98483.19
2023-01-25T23:22:45.320Z,98474.59
2023-01-25T23:25:11.585Z,98473.19
2023-01-25T23:27:37.845Z,98467.81
2023-01-25T23:30:04.372Z,98464.69
2023-01-25T23:32:30.549Z,98463.88
2023-01-25T23:34:58.865Z,98461.22
2023-01-25T23:37:25.049Z,98456.47
2023-01-25T23:39:51.271Z,98458.44
2023-01-25T23:42:17.513Z,98453.22
2023-01-25T23:44:45.387Z,98449.63
2023-01-25T23:47:12.678Z,98444.41
2023-01-25T23:49:38.902Z,98450.44
2023-01-25T23:52:05.116Z,98448.69
2023-01-25T23:54:31.326Z,98449.56
2023-01-25T23:56:57.528Z,98459.88
2023-01-25T23:59:23.776Z,98455.03
